createdAt,value
2023-04-29T00:01:12.247Z,100.00
2023-04-29T00:03:40.292Z,100.00
2023-04-29T00:06:10.453Z,100.00
2023-04-29T00:08:38.338Z,100.00
2023-04-29T00:11:06.273Z,100.00
2023-04-29T00:13:34.151Z,100.00
2023-04-29T00:16:02.198Z,100.00
2023-04-29T00:18:32.426Z,100.00
2023-04-29T00:21:00.264Z,100.00
2023-04-29T00:23:28.210Z,100.00
2023-04-29T00:25:56.018Z,100.00
2023-04-29T00:28:23.887Z,100.00
2023-04-29T00:30:51.893Z,100.00
2023-04-29T00:33:19.744Z,100.00
2023-04-29T00:35:49.241Z,100.00
2023-04-29T00:38:17.326Z,100.00
2023-04-29T00:40:45.959Z,100.00
2023-04-29T00:43:13.921Z,100.00
2023-04-29T00:45:41.828Z,100.00
2023-04-29T00:48:09.843Z,100.00
2023-04-29T00:50:37.875Z,100.00
2023-04-29T00:53:07.351Z,100.00
2023-04-29T00:55:36.651Z,100.00
2023-04-29T00:58:04.545Z,100.00
2023-04-29T01:00:32.542Z,100.00
2023-04-29T01:03:00.626Z,100.00
2023-04-29T01:05:28.874Z,100.00
2023-04-29T01:08:08.876Z,100.00
2023-04-29T01:10:45.670Z,100.00
2023-04-29T01:13:19.126Z,100.00
2023-04-29T01:15:51.175Z,100.00
2023-04-29T01:18:26.058Z,100.00
2023-04-29T01:20:54.658Z,100.00
2023-04-29T01:23:28.137Z,100.00
2023-04-29T01:25:56.442Z,100.00
2023-04-29T01:28:40.778Z,100.00
2023-04-29T01:31:12.351Z,100.00
2023-04-29T01:33:49.479Z,100.00
2023-04-29T01:36:27.819Z,100.00
2023-04-29T01:39:08.248Z,100.00
2023-04-29T01:41:42.191Z,100.00
2023-04-29T01:44:16.522Z,100.00
2023-04-29T01:46:46.960Z,100.00
2023-04-29T01:49:14.942Z,100.00
2023-04-29T01:51:42.925Z,100.00
2023-04-29T01:54:12.220Z,100.00
2023-04-29T01:56:40.190Z,100.00
2023-04-29T01:59:08.297Z,100.00
2023-04-29T02:01:36.170Z,100.00
2023-04-29T02:04:04.116Z,100.00
2023-04-29T02:06:33.641Z,100.00
2023-04-29T02:09:01.637Z,100.00
2023-04-29T02:11:33.508Z,100.00
2023-04-29T02:14:04.465Z,100.00
2023-04-29T02:16:32.329Z,100.00
2023-04-29T02:19:00.454Z,100.00
2023-04-29T02:21:28.341Z,100.00
2023-04-29T02:23:56.549Z,100.00
2023-04-29T02:26:24.879Z,100.00
2023-04-29T02:28:54.892Z,100.00
2023-04-29T02:31:22.548Z,100.00
2023-04-29T02:33:50.521Z,100.00
2023-04-29T02:36:18.900Z,100.00
2023-04-29T02:38:46.937Z,100.00
2023-04-29T02:41:18.158Z,100.00
2023-04-29T02:43:46.595Z,100.00
2023-04-29T02:46:16.426Z,100.00
2023-04-29T02:48:44.384Z,100.00
2023-04-29T02:51:12.412Z,100.00
2023-04-29T02:53:40.234Z,100.00
2023-04-29T02:56:08.231Z,100.00
2023-04-29T02:58:36.112Z,100.00
2023-04-29T03:01:04.991Z,100.00
2023-04-29T03:03:34.465Z,100.00
2023-04-29T03:06:02.484Z,100.00
2023-04-29T03:08:30.634Z,100.00
2023-04-29T03:10:58.816Z,100.00
2023-04-29T03:13:26.775Z,100.00
2023-04-29T03:15:54.713Z,100.00
2023-04-29T03:18:22.537Z,100.00
2023-04-29T03:20:52.040Z,100.00
2023-04-29T03:23:19.965Z,100.00
2023-04-29T03:25:47.876Z,100.00
2023-04-29T03:28:16.183Z,100.00
2023-04-29T03:30:44.035Z,100.00
2023-04-29T03:33:11.849Z,100.00
2023-04-29T03:35:39.819Z,100.00
2023-04-29T03:38:09.087Z,100.00
2023-04-29T03:40:37.016Z,100.00
2023-04-29T03:43:04.943Z,100.00
2023-04-29T03:45:33.074Z,100.00
2023-04-29T03:48:01.210Z,100.00
2023-04-29T03:50:29.195Z,100.00
2023-04-29T03:52:57.922Z,100.00
2023-04-29T03:55:27.282Z,100.00
2023-04-29T03:57:55.310Z,100.00
2023-04-29T04:00:24.034Z,100.00
2023-04-29T04:02:52.147Z,100.00
2023-04-29T04:05:21.081Z,100.00
2023-04-29T04:07:52.493Z,100.00
2023-04-29T04:10:20.895Z,100.00
2023-04-29T04:12:50.181Z,100.00
2023-04-29T04:15:18.195Z,100.00
2023-04-29T04:17:46.202Z,100.00
2023-04-29T04:20:14.358Z,100.00
2023-04-29T04:22:42.226Z,100.00
2023-04-29T04:25:11.343Z,100.00
2023-04-29T04:27:39.183Z,100.00
2023-04-29T04:30:09.899Z,100.00
2023-04-29T04:32:37.890Z,100.00
2023-04-29T04:35:06.562Z,100.00
2023-04-29T04:37:34.453Z,100.00
2023-04-29T04:40:02.491Z,100.00
2023-04-29T04:42:30.416Z,100.00
2023-04-29T04:44:58.368Z,100.00
2023-04-29T04:47:27.640Z,100.00
2023-04-29T04:49:55.748Z,100.00
2023-04-29T04:52:23.930Z,100.00
2023-04-29T04:54:51.842Z,100.00
2023-04-29T04:57:19.689Z,100.00
2023-04-29T04:59:47.608Z,100.00
2023-04-29T05:02:15.556Z,100.00
2023-04-29T05:04:44.731Z,100.00
2023-04-29T05:07:12.658Z,100.00
2023-04-29T05:09:40.761Z,100.00
2023-04-29T05:12:08.698Z,100.00
2023-04-29T05:14:36.612Z,100.00
2023-04-29T05:17:04.533Z,100.00
2023-04-29T05:19:32.481Z,100.00
2023-04-29T05:22:01.855Z,100.00
2023-04-29T05:24:30.453Z,100.00
2023-04-29T05:26:58.380Z,100.00
2023-04-29T05:29:27.267Z,100.00
2023-04-29T05:31:55.238Z,100.00
2023-04-29T05:34:23.141Z,100.00
2023-04-29T05:36:50.944Z,100.00
2023-04-29T05:39:20.347Z,100.00
2023-04-29T05:41:48.312Z,100.00
2023-04-29T05:44:16.261Z,100.00
2023-04-29T05:46:44.272Z,100.00
2023-04-29T05:49:12.324Z,100.00
2023-04-29T05:51:40.282Z,100.00
2023-04-29T05:54:08.192Z,100.00
2023-04-29T05:56:37.509Z,100.00
2023-04-29T05:59:05.485Z,100.00
2023-04-29T06:01:34.041Z,100.00
2023-04-29T06:04:02.243Z,100.00
2023-04-29T06:06:30.506Z,100.00
2023-04-29T06:08:58.509Z,100.00
2023-04-29T06:11:26.848Z,100.00
2023-04-29T06:13:56.101Z,100.00
2023-04-29T06:16:24.107Z,100.00
2023-04-29T06:18:52.235Z,100.00
2023-04-29T06:21:20.047Z,100.00
2023-04-29T06:23:47.931Z,100.00
2023-04-29T06:26:15.833Z,100.00
2023-04-29T06:28:43.729Z,100.00
2023-04-29T06:31:12.998Z,100.00
2023-04-29T06:33:40.936Z,100.00
2023-04-29T06:36:09.124Z,100.00
2023-04-29T06:38:36.952Z,100.00
2023-04-29T06:41:05.034Z,100.00
2023-04-29T06:43:32.961Z,100.00
2023-04-29T06:46:01.040Z,100.00
2023-04-29T06:48:30.254Z,100.00
2023-04-29T06:51:00.001Z,100.00
2023-04-29T06:53:28.827Z,100.00
2023-04-29T06:55:56.807Z,100.00
2023-04-29T06:58:24.616Z,100.00
2023-04-29T07:00:52.897Z,99.63
2023-04-29T07:03:20.973Z,98.37
2023-04-29T07:05:50.370Z,98.32
2023-04-29T07:08:18.328Z,96.85
2023-04-29T07:10:46.797Z,95.54
2023-04-29T07:13:14.652Z,97.21
2023-04-29T07:15:42.554Z,97.53
2023-04-29T07:18:10.640Z,96.82
2023-04-29T07:20:38.610Z,97.19
2023-04-29T07:23:07.864Z,97.80
2023-04-29T07:25:36.025Z,97.39
2023-04-29T07:28:04.690Z,95.67
2023-04-29T07:30:32.705Z,95.94
2023-04-29T07:33:00.689Z,95.26
2023-04-29T07:35:28.756Z,93.81
2023-04-29T07:37:57.087Z,92.96
2023-04-29T07:40:26.467Z,92.72
2023-04-29T07:42:54.431Z,91.30
2023-04-29T07:45:22.348Z,91.20
2023-04-29T07:47:50.257Z,91.92
2023-04-29T07:50:18.300Z,90.71
2023-04-29T07:52:46.184Z,89.40
2023-04-29T07:55:14.153Z,89.08
2023-04-29T07:57:43.428Z,88.54
2023-04-29T08:00:12.142Z,88.56
2023-04-29T08:02:40.504Z,86.21
2023-04-29T08:05:09.273Z,88.18
2023-04-29T08:07:37.329Z,88.61
2023-04-29T08:10:05.981Z,87.98
2023-04-29T08:12:34.270Z,86.54
2023-04-29T08:15:04.857Z,86.51
2023-04-29T08:17:32.868Z,86.18
2023-04-29T08:20:00.852Z,86.02
2023-04-29T08:22:28.702Z,87.42
2023-04-29T08:24:57.676Z,85.42
2023-04-29T08:27:25.761Z,86.04
2023-04-29T08:29:53.795Z,85.07
2023-04-29T08:32:23.296Z,83.73
2023-04-29T08:34:51.433Z,82.08
2023-04-29T08:37:20.728Z,82.13
2023-04-29T08:39:49.046Z,81.01
2023-04-29T08:42:20.778Z,81.36
2023-04-29T08:44:50.507Z,80.14
2023-04-29T08:47:19.189Z,79.49
2023-04-29T08:49:48.526Z,80.51
2023-04-29T08:52:16.397Z,77.44
2023-04-29T08:54:44.334Z,80.19
2023-04-29T08:57:14.532Z,76.88
2023-04-29T08:59:43.415Z,76.08
2023-04-29T09:02:17.148Z,76.46
2023-04-29T09:04:54.935Z,76.27
2023-04-29T09:07:24.042Z,76.44
2023-04-29T09:09:53.981Z,75.06
2023-04-29T09:12:21.981Z,74.03
2023-04-29T09:14:49.844Z,73.62
2023-04-29T09:17:18.283Z,73.51
2023-04-29T09:19:46.199Z,70.78
2023-04-29T09:22:15.519Z,71.74
2023-04-29T09:24:44.396Z,72.63
2023-04-29T09:27:28.229Z,69.59
2023-04-29T09:30:02.533Z,67.70
2023-04-29T09:32:30.927Z,71.38
2023-04-29T09:34:58.792Z,71.72
2023-04-29T09:37:28.862Z,71.69
2023-04-29T09:39:56.803Z,74.05
2023-04-29T09:42:24.792Z,75.56
2023-04-29T09:44:54.511Z,74.48
2023-04-29T09:47:31.314Z,71.45
2023-04-29T09:50:13.690Z,72.01
2023-04-29T09:52:43.301Z,70.09
2023-04-29T09:55:12.655Z,73.08
2023-04-29T09:57:44.365Z,71.52
2023-04-29T10:00:14.659Z,72.25
2023-04-29T10:02:43.777Z,71.61
2023-04-29T10:05:12.483Z,72.91
2023-04-29T10:07:42.615Z,69.96
2023-04-29T10:10:13.707Z,70.96
2023-04-29T10:12:42.471Z,71.72
2023-04-29T10:15:24.295Z,72.11
2023-04-29T10:17:59.292Z,71.78
2023-04-29T10:20:27.513Z,72.02
2023-04-29T10:22:59.504Z,70.17
2023-04-29T10:25:28.315Z,71.00
2023-04-29T10:27:57.007Z,72.41
2023-04-29T10:30:25.315Z,72.74
2023-04-29T10:32:53.278Z,73.00
2023-04-29T10:35:23.934Z,73.42
2023-04-29T10:37:53.006Z,74.35
2023-04-29T10:40:29.474Z,71.78
2023-04-29T10:42:58.026Z,72.86
2023-04-29T10:45:28.529Z,71.66
2023-04-29T10:48:15.704Z,70.75
2023-04-29T10:51:03.352Z,69.66
2023-04-29T10:53:31.744Z,72.51
2023-04-29T10:56:09.886Z,70.49
2023-04-29T10:58:43.718Z,72.87
2023-04-29T11:01:13.752Z,73.21
2023-04-29T11:04:05.152Z,69.58
2023-04-29T11:06:53.193Z,72.04
2023-04-29T11:09:23.289Z,73.27
2023-04-29T11:12:03.478Z,72.61
2023-04-29T11:14:32.690Z,72.57
2023-04-29T11:17:02.396Z,75.69
2023-04-29T11:19:34.859Z,72.35
2023-04-29T11:22:11.405Z,74.02
2023-04-29T11:24:51.030Z,71.97
2023-04-29T11:27:23.001Z,73.09
2023-04-29T11:29:51.931Z,73.61
2023-04-29T11:32:22.696Z,73.00
2023-04-29T11:34:50.714Z,72.83
2023-04-29T11:37:23.300Z,73.22
2023-04-29T11:39:52.286Z,71.83
2023-04-29T11:42:24.975Z,69.40
2023-04-29T11:44:54.647Z,70.36
2023-04-29T11:47:24.172Z,70.70
2023-04-29T11:49:52.137Z,70.92
2023-04-29T11:52:20.077Z,69.09
2023-04-29T11:54:48.844Z,69.15
2023-04-29T11:57:16.832Z,69.61
2023-04-29T11:59:46.086Z,68.88
2023-04-29T12:02:14.860Z,68.17
2023-04-29T12:04:49.071Z,66.45
2023-04-29T12:07:17.995Z,67.03
2023-04-29T12:09:46.794Z,68.74
2023-04-29T12:12:15.957Z,67.17
2023-04-29T12:14:45.984Z,66.94
2023-04-29T12:17:14.375Z,67.87
2023-04-29T12:19:44.120Z,66.55
2023-04-29T12:22:12.510Z,66.62
2023-04-29T12:24:41.173Z,65.24
2023-04-29T12:27:12.376Z,66.51
2023-04-29T12:29:41.227Z,67.31
2023-04-29T12:32:19.506Z,65.67
2023-04-29T12:34:48.013Z,63.94
2023-04-29T12:37:16.585Z,65.44
2023-04-29T12:39:44.777Z,68.02
2023-04-29T12:42:16.926Z,71.05
2023-04-29T12:44:47.567Z,72.74
2023-04-29T12:47:17.637Z,73.66
2023-04-29T12:49:47.124Z,72.73
2023-04-29T12:52:15.154Z,72.20
2023-04-29T12:54:44.074Z,73.66
2023-04-29T12:57:12.646Z,74.27
2023-04-29T12:59:41.415Z,75.50
2023-04-29T13:02:10.022Z,74.94
2023-04-29T13:04:40.243Z,75.29
2023-04-29T13:07:08.062Z,75.91
2023-04-29T13:09:37.974Z,75.95
2023-04-29T13:12:09.516Z,75.39
2023-04-29T13:14:37.585Z,77.26
2023-04-29T13:17:06.434Z,77.28
2023-04-29T13:19:48.056Z,76.54
2023-04-29T13:22:20.333Z,75.93
2023-04-29T13:24:48.244Z,77.22
2023-04-29T13:27:16.207Z,78.46
2023-04-29T13:29:44.314Z,78.83
2023-04-29T13:32:12.643Z,77.84
2023-04-29T13:34:43.313Z,79.18
2023-04-29T13:37:11.646Z,79.13
2023-04-29T13:39:45.204Z,79.59
2023-04-29T13:42:15.388Z,81.01
2023-04-29T13:44:52.760Z,80.60
2023-04-29T13:47:26.148Z,82.43
2023-04-29T14:00:25.337Z,79.69
2023-04-29T14:05:27.205Z,79.29
2023-04-29T14:07:55.338Z,79.66
2023-04-29T14:10:24.686Z,80.07
2023-04-29T14:12:52.527Z,80.59
2023-04-29T14:15:20.770Z,80.56
2023-04-29T14:17:50.228Z,81.23
2023-04-29T14:20:18.254Z,80.78
2023-04-29T14:22:46.294Z,80.40
2023-04-29T14:25:14.405Z,80.16
2023-04-29T14:27:43.681Z,80.61
2023-04-29T14:30:12.433Z,80.48
2023-04-29T14:32:40.435Z,79.76
2023-04-29T14:35:09.083Z,81.17
2023-04-29T14:37:37.028Z,81.13
2023-04-29T14:40:06.503Z,80.63
2023-04-29T14:42:34.492Z,80.25
2023-04-29T14:45:03.794Z,80.27
2023-04-29T14:47:34.718Z,81.69
2023-04-29T14:50:02.680Z,80.86
2023-04-29T14:52:30.735Z,82.08
2023-04-29T14:54:58.658Z,81.89
2023-04-29T14:57:26.533Z,81.83
2023-04-29T14:59:54.480Z,84.81
2023-04-29T15:02:23.833Z,86.09
2023-04-29T15:04:51.699Z,87.11
2023-04-29T15:07:19.988Z,88.08
2023-04-29T15:09:47.872Z,87.93
2023-04-29T15:12:17.638Z,86.50
2023-04-29T15:14:45.528Z,85.72
2023-04-29T15:17:13.515Z,84.56
2023-04-29T15:19:42.814Z,84.55
2023-04-29T15:22:10.902Z,85.96
2023-04-29T15:24:39.773Z,86.46
2023-04-29T15:27:07.757Z,86.23
2023-04-29T15:29:37.591Z,86.98
2023-04-29T15:32:05.982Z,86.91
2023-04-29T15:34:33.810Z,88.97
2023-04-29T15:37:03.136Z,89.86
2023-04-29T15:39:31.015Z,90.40
2023-04-29T15:42:00.242Z,92.40
2023-04-29T15:44:28.172Z,93.46
2023-04-29T15:46:56.080Z,96.39
2023-04-29T15:49:24.622Z,98.95
2023-04-29T15:51:52.811Z,100.00
2023-04-29T15:54:23.120Z,100.00
2023-04-29T15:56:50.990Z,100.00
2023-04-29T15:59:18.891Z,100.00
2023-04-29T16:01:46.882Z,100.00
2023-04-29T16:04:14.802Z,100.00
2023-04-29T16:06:42.827Z,100.00
2023-04-29T16:09:12.158Z,100.00
2023-04-29T16:11:41.572Z,100.00
2023-04-29T16:14:09.533Z,100.00
2023-04-29T16:16:37.425Z,100.00
2023-04-29T16:19:05.368Z,100.00
2023-04-29T16:21:34.115Z,100.00
2023-04-29T16:24:02.012Z,100.00
2023-04-29T16:26:30.361Z,100.00
2023-04-29T16:28:59.859Z,100.00
2023-04-29T16:31:28.371Z,100.00
2023-04-29T16:33:57.464Z,100.00
2023-04-29T16:36:26.313Z,100.00
2023-04-29T16:38:55.069Z,100.00
2023-04-29T16:41:24.107Z,100.00
2023-04-29T16:43:52.005Z,100.00
2023-04-29T16:46:21.556Z,100.00
2023-04-29T16:48:51.313Z,100.00
2023-04-29T16:51:19.448Z,100.00
2023-04-29T16:53:47.301Z,100.00
2023-04-29T16:56:15.298Z,100.00
2023-04-29T16:58:43.166Z,100.00
2023-04-29T17:01:11.245Z,100.00
2023-04-29T17:03:41.173Z,100.00
2023-04-29T17:06:09.278Z,100.00
2023-04-29T17:08:37.309Z,100.00
2023-04-29T17:11:06.647Z,100.00
2023-04-29T17:13:34.695Z,100.00
2023-04-29T17:16:02.730Z,100.00
2023-04-29T17:18:30.586Z,100.00
2023-04-29T17:21:00.847Z,100.00
2023-04-29T17:23:28.719Z,100.00
2023-04-29T17:25:57.134Z,100.00
2023-04-29T17:28:25.125Z,100.00
2023-04-29T17:30:55.766Z,100.00
2023-04-29T17:33:32.446Z,100.00
2023-04-29T17:36:02.294Z,100.00
2023-04-29T17:38:30.315Z,100.00
2023-04-29T17:40:58.207Z,100.00
2023-04-29T17:43:26.653Z,100.00
2023-04-29T17:45:54.841Z,100.00
2023-04-29T17:48:22.880Z,100.00
2023-04-29T17:50:50.776Z,100.00
2023-04-29T17:53:20.058Z,100.00
2023-04-29T17:55:47.939Z,100.00
2023-04-29T17:58:15.914Z,100.00
2023-04-29T18:00:43.935Z,100.00
2023-04-29T18:03:11.993Z,100.00
2023-04-29T18:05:39.892Z,100.00
2023-04-29T18:08:07.778Z,100.00
2023-04-29T18:10:37.025Z,100.00
2023-04-29T18:13:05.026Z,100.00
2023-04-29T18:15:33.215Z,100.00
2023-04-29T18:18:01.120Z,100.00
2023-04-29T18:20:29.056Z,100.00
2023-04-29T18:22:57.024Z,100.00
2023-04-29T18:25:24.889Z,100.00
2023-04-29T18:28:07.604Z,100.00
2023-04-29T18:30:43.553Z,100.00
2023-04-29T18:33:11.530Z,100.00
2023-04-29T18:35:39.454Z,100.00
2023-04-29T18:38:08.486Z,100.00
2023-04-29T18:40:37.005Z,100.00
2023-04-29T18:43:06.277Z,100.00
2023-04-29T18:45:34.134Z,100.00
2023-04-29T18:48:05.557Z,100.00
2023-04-29T18:50:34.058Z,100.00
2023-04-29T18:53:02.030Z,100.00
2023-04-29T18:55:30.675Z,100.00
2023-04-29T18:57:58.749Z,100.00
2023-04-29T19:00:28.222Z,100.00
2023-04-29T19:02:56.657Z,100.00
2023-04-29T19:05:24.937Z,100.00
2023-04-29T19:07:53.016Z,100.00
2023-04-29T19:10:21.316Z,100.00
2023-04-29T19:12:49.415Z,100.00
2023-04-29T19:15:17.819Z,100.00
2023-04-29T19:17:47.303Z,100.00
2023-04-29T19:20:15.461Z,100.00
2023-04-29T19:22:43.602Z,100.00
2023-04-29T19:25:12.114Z,100.00
2023-04-29T19:27:45.116Z,100.00
2023-04-29T19:30:14.300Z,100.00
2023-04-29T19:32:43.077Z,100.00
2023-04-29T19:35:13.007Z,100.00
2023-04-29T19:37:41.443Z,100.00
2023-04-29T19:40:10.904Z,100.00
2023-04-29T19:42:40.076Z,100.00
2023-04-29T19:45:09.693Z,100.00
2023-04-29T19:47:37.739Z,100.00
2023-04-29T19:50:06.433Z,100.00
2023-04-29T19:52:35.655Z,100.00
2023-04-29T19:55:04.909Z,100.00
2023-04-29T19:57:33.130Z,100.00
2023-04-29T20:00:01.468Z,100.00
2023-04-29T20:02:29.469Z,100.00
2023-04-29T20:04:57.517Z,100.00
2023-04-29T20:07:25.566Z,100.00
2023-04-29T20:09:55.165Z,100.00
2023-04-29T20:12:23.405Z,100.00
2023-04-29T20:14:51.256Z,100.00
2023-04-29T20:17:19.204Z,100.00
2023-04-29T20:19:47.130Z,100.00
2023-04-29T20:22:15.052Z,100.00
2023-04-29T20:24:42.935Z,100.00
2023-04-29T20:27:12.296Z,100.00
2023-04-29T20:29:40.197Z,100.00
2023-04-29T20:32:08.110Z,100.00
2023-04-29T20:34:36.471Z,100.00
2023-04-29T20:37:04.435Z,100.00
2023-04-29T20:39:32.353Z,100.00
2023-04-29T20:42:00.499Z,100.00
2023-04-29T20:44:30.348Z,100.00
2023-04-29T20:46:58.538Z,100.00
2023-04-29T20:49:26.760Z,100.00
2023-04-29T20:51:54.746Z,100.00
2023-04-29T20:54:22.740Z,100.00
2023-04-29T20:56:50.606Z,100.00
2023-04-29T20:59:18.666Z,100.00
2023-04-29T21:01:47.949Z,100.00
2023-04-29T21:04:16.523Z,100.00
2023-04-29T21:06:44.620Z,100.00
2023-04-29T21:09:12.750Z,100.00
2023-04-29T21:11:40.649Z,100.00
2023-04-29T21:14:08.443Z,100.00
2023-04-29T21:16:36.420Z,100.00
2023-04-29T21:19:05.726Z,100.00
2023-04-29T21:21:33.717Z,100.00
2023-04-29T21:24:01.560Z,100.00
2023-04-29T21:26:29.444Z,100.00
2023-04-29T21:28:57.319Z,100.00
2023-04-29T21:31:25.341Z,100.00
2023-04-29T21:33:53.295Z,100.00
2023-04-29T21:36:22.575Z,100.00
2023-04-29T21:38:51.953Z,100.00
2023-04-29T21:41:25.110Z,100.00
2023-04-29T21:43:53.413Z,100.00
2023-04-29T21:46:21.780Z,100.00
2023-04-29T21:48:50.071Z,100.00
2023-04-29T21:51:19.628Z,100.00
2023-04-29T21:53:48.836Z,100.00
2023-04-29T21:56:16.848Z,100.00
2023-04-29T21:58:44.859Z,100.00
2023-04-29T22:01:26.660Z,100.00
2023-04-29T22:03:54.647Z,100.00
2023-04-29T22:06:22.657Z,100.00
2023-04-29T22:08:52.115Z,100.00
2023-04-29T22:11:21.560Z,100.00
2023-04-29T22:13:49.691Z,100.00
2023-04-29T22:16:18.741Z,100.00
2023-04-29T22:18:46.801Z,100.00
2023-04-29T22:21:14.829Z,100.00
2023-04-29T22:23:43.174Z,100.00
2023-04-29T22:26:12.477Z,100.00
2023-04-29T22:28:40.410Z,100.00
2023-04-29T22:31:08.276Z,100.00
2023-04-29T22:33:36.169Z,100.00
2023-04-29T22:36:05.313Z,100.00
2023-04-29T22:38:33.252Z,100.00
2023-04-29T22:43:31.304Z,100.00
2023-04-29T22:45:59.331Z,100.00
2023-04-29T22:48:28.044Z,100.00
2023-04-29T22:50:59.306Z,100.00
2023-04-29T22:53:27.680Z,100.00
2023-04-29T22:55:57.119Z,100.00
2023-04-29T22:58:26.396Z,100.00
2023-04-29T23:00:57.246Z,100.00
2023-04-29T23:03:25.531Z,100.00
2023-04-29T23:05:54.988Z,100.00
2023-04-29T23:08:22.861Z,100.00
2023-04-29T23:10:50.997Z,100.00
2023-04-29T23:13:19.029Z,100.00
2023-04-29T23:15:47.095Z,100.00
2023-04-29T23:18:16.498Z,100.00
2023-04-29T23:20:47.829Z,100.00
2023-04-29T23:23:15.880Z,100.00
2023-04-29T23:25:43.768Z,100.00
2023-04-29T23:28:11.704Z,100.00
2023-04-29T23:30:39.583Z,100.00
2023-04-29T23:33:07.568Z,100.00
2023-04-29T23:35:36.893Z,100.00
2023-04-29T23:38:04.858Z,100.00
2023-04-29T23:40:32.811Z,100.00
2023-04-29T23:43:00.774Z,100.00
2023-04-29T23:45:29.928Z,100.00
2023-04-29T23:47:57.826Z,100.00
2023-04-29T23:50:25.843Z,100.00
2023-04-29T23:52:55.103Z,100.00
2023-04-29T23:55:23.022Z,100.00
2023-04-29T23:57:50.946Z,100.00
